sensor_id;sensor_type;location;lat;lon;timestamp;temperature;humidity
2623;DHT22;1321;48.690;9.022;2022-08-19T00:01:53;25.30;99.90
2623;DHT22;1321;48.690;9.022;2022-08-19T00:04:25;25.30;99.90
2623;DHT22;1321;48.690;9.022;2022-08-19T00:06:54;25.30;99.90
2623;DHT22;1321;48.690;9.022;2022-08-19T00:09:24;25.30;99.90
2623;DHT22;1321;48.690;9.022;2022-08-19T00:11:53;25.30;99.90
2623;DHT22;1321;48.690;9.022;2022-08-19T00:14:24;25.30;99.90
2623;DHT22;1321;48.690;9.022;2022-08-19T00:16:53;25.30;99.90
2623;DHT22;1321;48.690;9.022;2022-08-19T00:19:22;25.30;99.90
2623;DHT22;1321;48.690;9.022;2022-08-19T00:21:52;25.30;99.90
2623;DHT22;1321;48.690;9.022;2022-08-19T00:24:22;25.20;99.90
2623;DHT22;1321;48.690;9.022;2022-08-19T00:26:50;25.20;99.90
2623;DHT22;1321;48.690;9.022;2022-08-19T00:29:20;25.20;99.90
2623;DHT22;1321;48.690;9.022;2022-08-19T00:31:49;25.20;99.90
2623;DHT22;1321;48.690;9.022;2022-08-19T00:34:20;25.20;99.90
2623;DHT22;1321;48.690;9.022;2022-08-19T00:36:49;25.20;99.90
2623;DHT22;1321;48.690;9.022;2022-08-19T00:39:18;25.20;99.90
2623;DHT22;1321;48.690;9.022;2022-08-19T00:41:47;25.20;99.90
2623;DHT22;1321;48.690;9.022;2022-08-19T00:44:18;25.20;99.90
2623;DHT22;1321;48.690;9.022;2022-08-19T00:46:55;25.20;99.90
2623;DHT22;1321;48.690;9.022;2022-08-19T00:49:30;25.10;99.90
2623;DHT22;1321;48.690;9.022;2022-08-19T00:52:03;25.10;99.90
2623;DHT22;1321;48.690;9.022;2022-08-19T00:54:33;25.10;99.90
2623;DHT22;1321;48.690;9.022;2022-08-19T00:57:06;25.10;99.90
2623;DHT22;1321;48.690;9.022;2022-08-19T00:59:36;25.10;99.90
2623;DHT22;1321;48.690;9.022;2022-08-19T01:02:27;25.10;99.90
2623;DHT22;1321;48.690;9.022;2022-08-19T01:04:55;25.10;99.90
2623;DHT22;1321;48.690;9.022;2022-08-19T01:07:24;25.10;99.90
2623;DHT22;1321;48.690;9.022;2022-08-19T01:09:54;25.10;99.90
2623;DHT22;1321;48.690;9.022;2022-08-19T01:12:22;25.10;99.90
2623;DHT22;1321;48.690;9.022;2022-08-19T01:14:51;25.10;99.90
2623;DHT22;1321;48.690;9.022;2022-08-19T01:17:20;25.10;99.90
2623;DHT22;1321;48.690;9.022;2022-08-19T01:19:49;25.10;99.90
2623;DHT22;1321;48.690;9.022;2022-08-19T01:22:25;25.10;99.90
2623;DHT22;1321;48.690;9.022;2022-08-19T01:25:00;25.10;99.90
2623;DHT22;1321;48.690;9.022;2022-08-19T01:27:38;25.00;99.90
2623;DHT22;1321;48.690;9.022;2022-08-19T01:30:11;25.10;99.90
2623;DHT22;1321;48.690;9.022;2022-08-19T01:32:40;25.10;99.90
2623;DHT22;1321;48.690;9.022;2022-08-19T01:35:11;25.00;99.90
2623;DHT22;1321;48.690;9.022;2022-08-19T01:37:47;25.00;99.90
2623;DHT22;1321;48.690;9.022;2022-08-19T01:40:15;25.00;99.90
2623;DHT22;1321;48.690;9.022;2022-08-19T01:42:44;25.00;99.90
2623;DHT22;1321;48.690;9.022;2022-08-19T01:45:12;25.00;99.90
2623;DHT22;1321;48.690;9.022;2022-08-19T01:47:41;25.00;99.90
2623;DHT22;1321;48.690;9.022;2022-08-19T01:50:18;25.00;99.90
2623;DHT22;1321;48.690;9.022;2022-08-19T01:52:49;25.00;99.90
2623;DHT22;1321;48.690;9.022;2022-08-19T01:55:34;24.40;99.90
2623;DHT22;1321;48.690;9.022;2022-08-19T01:58:09;25.00;99.90
2623;DHT22;1321;48.690;9.022;2022-08-19T02:00:39;24.90;99.90
2623;DHT22;1321;48.690;9.022;2022-08-19T02:03:07;24.90;99.90
2623;DHT22;1321;48.690;9.022;2022-08-19T02:05:38;24.90;99.90
2623;DHT22;1321;48.690;9.022;2022-08-19T02:08:09;24.90;99.90
2623;DHT22;1321;48.690;9.022;2022-08-19T02:10:39;24.90;99.90
2623;DHT22;1321;48.690;9.022;2022-08-19T02:13:08;24.90;99.90
2623;DHT22;1321;48.690;9.022;2022-08-19T02:15:37;24.80;99.90
2623;DHT22;1321;48.690;9.022;2022-08-19T02:18:05;24.80;99.90
2623;DHT22;1321;48.690;9.022;2022-08-19T02:20:35;24.80;99.90
2623;DHT22;1321;48.690;9.022;2022-08-19T02:23:03;24.80;99.90
2623;DHT22;1321;48.690;9.022;2022-08-19T02:25:41;24.80;99.90
2623;DHT22;1321;48.690;9.022;2022-08-19T02:28:11;24.80;99.90
2623;DHT22;1321;48.690;9.022;2022-08-19T02:30:45;24.80;99.90
2623;DHT22;1321;48.690;9.022;2022-08-19T02:33:14;24.80;99.90
2623;DHT22;1321;48.690;9.022;2022-08-19T02:35:43;24.70;99.90
2623;DHT22;1321;48.690;9.022;2022-08-19T02:38:12;24.70;99.90
2623;DHT22;1321;48.690;9.022;2022-08-19T02:40:57;24.70;99.90
2623;DHT22;1321;48.690;9.022;2022-08-19T02:43:26;24.70;99.90
2623;DHT22;1321;48.690;9.022;2022-08-19T02:45:54;24.70;99.90
2623;DHT22;1321;48.690;9.022;2022-08-19T02:48:25;24.70;99.90
2623;DHT22;1321;48.690;9.022;2022-08-19T02:50:53;24.70;99.90
2623;DHT22;1321;48.690;9.022;2022-08-19T02:53:24;24.70;99.90
2623;DHT22;1321;48.690;9.022;2022-08-19T02:55:55;24.70;99.90
2623;DHT22;1321;48.690;9.022;2022-08-19T02:58:23;24.70;99.90
2623;DHT22;1321;48.690;9.022;2022-08-19T03:00:55;24.70;99.90
2623;DHT22;1321;48.690;9.022;2022-08-19T03:03:24;24.70;99.90
2623;DHT22;1321;48.690;9.022;2022-08-19T03:06:04;24.70;99.90
2623;DHT22;1321;48.690;9.022;2022-08-19T03:08:32;24.70;99.90
2623;DHT22;1321;48.690;9.022;2022-08-19T03:11:02;24.70;99.90
2623;DHT22;1321;48.690;9.022;2022-08-19T03:13:31;24.70;99.90
2623;DHT22;1321;48.690;9.022;2022-08-19T03:15:59;24.70;99.90
2623;DHT22;1321;48.690;9.022;2022-08-19T03:18:27;24.70;99.90
2623;DHT22;1321;48.690;9.022;2022-08-19T03:20:56;24.70;99.90
2623;DHT22;1321;48.690;9.022;2022-08-19T03:23:24;24.60;99.90
2623;DHT22;1321;48.690;9.022;2022-08-19T03:25:53;24.70;99.90
2623;DHT22;1321;48.690;9.022;2022-08-19T03:28:43;24.60;99.90
2623;DHT22;1321;48.690;9.022;2022-08-19T03:31:25;24.60;99.90
2623;DHT22;1321;48.690;9.022;2022-08-19T03:34:17;24.50;99.90
2623;DHT22;1321;48.690;9.022;2022-08-19T03:36:46;24.50;99.90
2623;DHT22;1321;48.690;9.022;2022-08-19T03:39:15;24.50;99.90
2623;DHT22;1321;48.690;9.022;2022-08-19T03:41:45;24.50;99.90
2623;DHT22;1321;48.690;9.022;2022-08-19T03:44:17;24.50;99.90
2623;DHT22;1321;48.690;9.022;2022-08-19T03:46:47;24.50;99.90
2623;DHT22;1321;48.690;9.022;2022-08-19T03:49:16;24.50;99.90
2623;DHT22;1321;48.690;9.022;2022-08-19T03:51:48;24.50;99.90
2623;DHT22;1321;48.690;9.022;2022-08-19T03:54:19;24.50;99.90
2623;DHT22;1321;48.690;9.022;2022-08-19T03:56:52;24.50;99.90
2623;DHT22;1321;48.690;9.022;2022-08-19T03:59:24;24.50;99.90
2623;DHT22;1321;48.690;9.022;2022-08-19T04:01:54;24.40;99.90
2623;DHT22;1321;48.690;9.022;2022-08-19T04:04:22;24.40;99.90
2623;DHT22;1321;48.690;9.022;2022-08-19T04:06:55;24.50;99.90
2623;DHT22;1321;48.690;9.022;2022-08-19T04:09:24;24.50;99.90
2623;DHT22;1321;48.690;9.022;2022-08-19T04:11:54;24.40;99.90
2623;DHT22;1321;48.690;9.022;2022-08-19T04:14:25;24.40;99.90
2623;DHT22;1321;48.690;9.022;2022-08-19T04:16:55;24.40;99.90
2623;DHT22;1321;48.690;9.022;2022-08-19T04:19:24;24.40;99.90
2623;DHT22;1321;48.690;9.022;2022-08-19T04:21:54;24.40;99.90
2623;DHT22;1321;48.690;9.022;2022-08-19T04:24:22;24.40;99.90
2623;DHT22;1321;48.690;9.022;2022-08-19T04:26:51;24.40;99.90
2623;DHT22;1321;48.690;9.022;2022-08-19T04:29:21;24.40;99.90
2623;DHT22;1321;48.690;9.022;2022-08-19T04:31:55;24.40;99.90
2623;DHT22;1321;48.690;9.022;2022-08-19T04:34:25;24.40;99.90
2623;DHT22;1321;48.690;9.022;2022-08-19T04:36:55;24.40;99.90
2623;DHT22;1321;48.690;9.022;2022-08-19T04:39:26;24.40;99.90
2623;DHT22;1321;48.690;9.022;2022-08-19T04:42:17;24.30;99.90
2623;DHT22;1321;48.690;9.022;2022-08-19T04:45:04;24.40;99.90
2623;DHT22;1321;48.690;9.022;2022-08-19T04:47:42;24.30;99.90
2623;DHT22;1321;48.690;9.022;2022-08-19T04:50:24;24.30;99.90
2623;DHT22;1321;48.690;9.022;2022-08-19T04:52:52;24.30;99.90
2623;DHT22;1321;48.690;9.022;2022-08-19T04:55:22;24.30;99.90
2623;DHT22;1321;48.690;9.022;2022-08-19T04:57:52;24.20;99.90
2623;DHT22;1321;48.690;9.022;2022-08-19T05:00:20;24.30;99.90
2623;DHT22;1321;48.690;9.022;2022-08-19T05:02:49;24.20;99.90
2623;DHT22;1321;48.690;9.022;2022-08-19T05:05:18;24.20;99.90
2623;DHT22;1321;48.690;9.022;2022-08-19T05:07:46;24.30;99.90
2623;DHT22;1321;48.690;9.022;2022-08-19T05:10:14;24.20;99.90
2623;DHT22;1321;48.690;9.022;2022-08-19T05:12:42;24.30;99.90
2623;DHT22;1321;48.690;9.022;2022-08-19T05:15:11;24.20;99.90
2623;DHT22;1321;48.690;9.022;2022-08-19T05:17:39;24.20;99.90
2623;DHT22;1321;48.690;9.022;2022-08-19T05:20:30;24.20;99.90
2623;DHT22;1321;48.690;9.022;2022-08-19T05:23:15;24.20;99.90
2623;DHT22;1321;48.690;9.022;2022-08-19T05:25:48;24.20;99.90
2623;DHT22;1321;48.690;9.022;2022-08-19T05:28:17;24.20;99.90
2623;DHT22;1321;48.690;9.022;2022-08-19T05:30:45;24.10;99.90
2623;DHT22;1321;48.690;9.022;2022-08-19T05:33:15;24.20;99.90
2623;DHT22;1321;48.690;9.022;2022-08-19T05:35:44;24.20;99.90
2623;DHT22;1321;48.690;9.022;2022-08-19T05:38:12;24.10;99.90
2623;DHT22;1321;48.690;9.022;2022-08-19T05:40:41;24.20;99.90
2623;DHT22;1321;48.690;9.022;2022-08-19T05:43:12;24.20;99.90
2623;DHT22;1321;48.690;9.022;2022-08-19T05:45:42;24.20;99.90
2623;DHT22;1321;48.690;9.022;2022-08-19T05:48:11;24.20;99.90
2623;DHT22;1321;48.690;9.022;2022-08-19T05:50:41;24.20;99.90
2623;DHT22;1321;48.690;9.022;2022-08-19T05:53:10;24.20;99.90
2623;DHT22;1321;48.690;9.022;2022-08-19T05:55:38;24.20;99.90
2623;DHT22;1321;48.690;9.022;2022-08-19T05:58:06;24.20;99.90
2623;DHT22;1321;48.690;9.022;2022-08-19T06:00:35;24.20;99.90
2623;DHT22;1321;48.690;9.022;2022-08-19T06:03:04;24.20;99.90
2623;DHT22;1321;48.690;9.022;2022-08-19T06:05:39;24.20;99.90
2623;DHT22;1321;48.690;9.022;2022-08-19T06:08:19;24.20;99.90
2623;DHT22;1321;48.690;9.022;2022-08-19T06:11:13;24.20;99.90
2623;DHT22;1321;48.690;9.022;2022-08-19T06:13:42;24.20;99.90
2623;DHT22;1321;48.690;9.022;2022-08-19T06:16:11;24.20;99.90
2623;DHT22;1321;48.690;9.022;2022-08-19T06:18:39;24.20;99.90
2623;DHT22;1321;48.690;9.022;2022-08-19T06:21:07;24.20;99.90
2623;DHT22;1321;48.690;9.022;2022-08-19T06:23:37;24.10;99.90
2623;DHT22;1321;48.690;9.022;2022-08-19T06:26:06;24.20;99.90
2623;DHT22;1321;48.690;9.022;2022-08-19T06:28:34;24.20;99.90
2623;DHT22;1321;48.690;9.022;2022-08-19T06:31:06;24.20;99.90
2623;DHT22;1321;48.690;9.022;2022-08-19T06:33:35;24.20;99.90
2623;DHT22;1321;48.690;9.022;2022-08-19T06:36:04;24.20;99.90
2623;DHT22;1321;48.690;9.022;2022-08-19T06:38:33;24.10;99.90
2623;DHT22;1321;48.690;9.022;2022-08-19T06:41:04;24.10;99.90
2623;DHT22;1321;48.690;9.022;2022-08-19T06:43:34;24.10;99.90
2623;DHT22;1321;48.690;9.022;2022-08-19T06:46:11;24.10;99.90
2623;DHT22;1321;48.690;9.022;2022-08-19T06:48:40;24.10;99.90
2623;DHT22;1321;48.690;9.022;2022-08-19T06:51:12;24.10;99.90
2623;DHT22;1321;48.690;9.022;2022-08-19T06:53:45;24.10;99.90
2623;DHT22;1321;48.690;9.022;2022-08-19T06:56:18;24.10;99.90
2623;DHT22;1321;48.690;9.022;2022-08-19T06:58:47;24.10;99.90
2623;DHT22;1321;48.690;9.022;2022-08-19T07:01:20;24.10;99.90
2623;DHT22;1321;48.690;9.022;2022-08-19T07:03:48;24.10;99.90
2623;DHT22;1321;48.690;9.022;2022-08-19T07:06:18;24.20;99.90
2623;DHT22;1321;48.690;9.022;2022-08-19T07:09:08;24.20;99.90
2623;DHT22;1321;48.690;9.022;2022-08-19T07:11:43;24.30;99.90
2623;DHT22;1321;48.690;9.022;2022-08-19T07:14:13;24.30;99.90
2623;DHT22;1321;48.690;9.022;2022-08-19T07:16:46;24.30;99.90
2623;DHT22;1321;48.690;9.022;2022-08-19T07:19:15;24.30;99.90
2623;DHT22;1321;48.690;9.022;2022-08-19T07:21:45;24.30;99.90
2623;DHT22;1321;48.690;9.022;2022-08-19T07:24:13;24.30;99.90
2623;DHT22;1321;48.690;9.022;2022-08-19T07:26:44;24.30;99.90
2623;DHT22;1321;48.690;9.022;2022-08-19T07:29:18;24.30;99.90
2623;DHT22;1321;48.690;9.022;2022-08-19T07:31:50;24.30;99.90
2623;DHT22;1321;48.690;9.022;2022-08-19T07:34:20;24.30;99.90
2623;DHT22;1321;48.690;9.022;2022-08-19T07:36:48;24.40;99.90
2623;DHT22;1321;48.690;9.022;2022-08-19T07:39:21;24.40;99.90
2623;DHT22;1321;48.690;9.022;2022-08-19T07:41:51;24.40;99.90
2623;DHT22;1321;48.690;9.022;2022-08-19T07:44:20;24.40;99.90
2623;DHT22;1321;48.690;9.022;2022-08-19T07:46:51;24.40;99.90
2623;DHT22;1321;48.690;9.022;2022-08-19T07:49:20;24.40;99.90
2623;DHT22;1321;48.690;9.022;2022-08-19T07:51:50;24.40;99.90
2623;DHT22;1321;48.690;9.022;2022-08-19T07:54:20;24.40;99.90
2623;DHT22;1321;48.690;9.022;2022-08-19T07:56:48;24.40;99.90
2623;DHT22;1321;48.690;9.022;2022-08-19T07:59:20;24.40;99.90
2623;DHT22;1321;48.690;9.022;2022-08-19T08:01:49;24.30;99.90
2623;DHT22;1321;48.690;9.022;2022-08-19T08:04:19;24.30;99.90
2623;DHT22;1321;48.690;9.022;2022-08-19T08:07:05;24.30;99.90
2623;DHT22;1321;48.690;9.022;2022-08-19T08:09:57;24.30;99.90
2623;DHT22;1321;48.690;9.022;2022-08-19T08:12:32;24.30;99.90
2623;DHT22;1321;48.690;9.022;2022-08-19T08:15:06;24.40;99.90
2623;DHT22;1321;48.690;9.022;2022-08-19T08:17:39;24.30;99.90
2623;DHT22;1321;48.690;9.022;2022-08-19T08:20:17;24.30;99.90
2623;DHT22;1321;48.690;9.022;2022-08-19T08:22:47;24.20;99.90
2623;DHT22;1321;48.690;9.022;2022-08-19T08:25:34;24.20;99.90
2623;DHT22;1321;48.690;9.022;2022-08-19T08:28:05;24.20;99.90
2623;DHT22;1321;48.690;9.022;2022-08-19T08:30:38;24.20;99.90
2623;DHT22;1321;48.690;9.022;2022-08-19T08:33:11;24.20;99.90
2623;DHT22;1321;48.690;9.022;2022-08-19T08:35:40;24.20;99.90
2623;DHT22;1321;48.690;9.022;2022-08-19T08:38:09;24.20;99.90
2623;DHT22;1321;48.690;9.022;2022-08-19T08:40:43;24.20;99.90
2623;DHT22;1321;48.690;9.022;2022-08-19T08:43:20;24.20;99.90
2623;DHT22;1321;48.690;9.022;2022-08-19T08:45:57;24.20;99.90
2623;DHT22;1321;48.690;9.022;2022-08-19T08:48:34;24.20;99.90
2623;DHT22;1321;48.690;9.022;2022-08-19T08:51:05;24.30;99.90
2623;DHT22;1321;48.690;9.022;2022-08-19T08:53:36;24.30;99.90
2623;DHT22;1321;48.690;9.022;2022-08-19T08:56:09;24.20;99.90
2623;DHT22;1321;48.690;9.022;2022-08-19T08:58:51;24.30;99.90
2623;DHT22;1321;48.690;9.022;2022-08-19T09:01:22;24.20;99.90
2623;DHT22;1321;48.690;9.022;2022-08-19T09:03:56;24.20;99.90
2623;DHT22;1321;48.690;9.022;2022-08-19T09:06:37;24.20;99.90
2623;DHT22;1321;48.690;9.022;2022-08-19T09:09:14;24.20;99.90
2623;DHT22;1321;48.690;9.022;2022-08-19T09:11:50;24.30;99.90
2623;DHT22;1321;48.690;9.022;2022-08-19T09:14:34;24.30;99.90
2623;DHT22;1321;48.690;9.022;2022-08-19T09:17:20;24.30;99.90
2623;DHT22;1321;48.690;9.022;2022-08-19T09:19:59;24.40;99.90
2623;DHT22;1321;48.690;9.022;2022-08-19T09:22:35;24.40;99.90
2623;DHT22;1321;48.690;9.022;2022-08-19T09:25:05;24.40;99.90
2623;DHT22;1321;48.690;9.022;2022-08-19T09:27:36;24.40;99.90
2623;DHT22;1321;48.690;9.022;2022-08-19T09:30:12;24.40;99.90
2623;DHT22;1321;48.690;9.022;2022-08-19T09:32:43;24.40;99.90
2623;DHT22;1321;48.690;9.022;2022-08-19T09:35:13;24.40;99.90
2623;DHT22;1321;48.690;9.022;2022-08-19T09:37:42;24.40;99.90
2623;DHT22;1321;48.690;9.022;2022-08-19T09:40:12;24.40;99.90
2623;DHT22;1321;48.690;9.022;2022-08-19T09:42:42;24.50;99.90
2623;DHT22;1321;48.690;9.022;2022-08-19T09:45:18;24.50;99.90
2623;DHT22;1321;48.690;9.022;2022-08-19T09:47:50;24.50;99.90
2623;DHT22;1321;48.690;9.022;2022-08-19T09:50:22;24.50;99.90
2623;DHT22;1321;48.690;9.022;2022-08-19T09:52:51;24.50;99.90
2623;DHT22;1321;48.690;9.022;2022-08-19T09:55:25;24.50;99.90
2623;DHT22;1321;48.690;9.022;2022-08-19T09:57:59;24.50;99.90
2623;DHT22;1321;48.690;9.022;2022-08-19T10:00:27;24.50;99.90
2623;DHT22;1321;48.690;9.022;2022-08-19T10:02:58;24.50;99.90
2623;DHT22;1321;48.690;9.022;2022-08-19T10:05:29;24.50;99.90
2623;DHT22;1321;48.690;9.022;2022-08-19T10:08:16;24.50;99.90
2623;DHT22;1321;48.690;9.022;2022-08-19T10:10:47;24.50;99.90
2623;DHT22;1321;48.690;9.022;2022-08-19T10:13:18;24.60;99.90
2623;DHT22;1321;48.690;9.022;2022-08-19T10:15:49;24.50;99.90
2623;DHT22;1321;48.690;9.022;2022-08-19T10:18:20;24.60;99.90
2623;DHT22;1321;48.690;9.022;2022-08-19T10:20:51;24.60;99.90
2623;DHT22;1321;48.690;9.022;2022-08-19T10:23:22;24.60;99.90
2623;DHT22;1321;48.690;9.022;2022-08-19T10:25:51;24.60;99.90
2623;DHT22;1321;48.690;9.022;2022-08-19T10:28:21;24.60;99.90
2623;DHT22;1321;48.690;9.022;2022-08-19T10:30:50;24.60;99.90
2623;DHT22;1321;48.690;9.022;2022-08-19T10:33:20;24.60;99.90
2623;DHT22;1321;48.690;9.022;2022-08-19T10:36:14;24.60;99.90
2623;DHT22;1321;48.690;9.022;2022-08-19T10:38:46;24.60;99.90
2623;DHT22;1321;48.690;9.022;2022-08-19T10:41:24;24.60;99.90
2623;DHT22;1321;48.690;9.022;2022-08-19T10:43:53;24.70;99.90
2623;DHT22;1321;48.690;9.022;2022-08-19T10:46:23;24.70;99.90
2623;DHT22;1321;48.690;9.022;2022-08-19T10:48:54;24.70;99.90
2623;DHT22;1321;48.690;9.022;2022-08-19T10:51:22;24.70;99.90
2623;DHT22;1321;48.690;9.022;2022-08-19T10:54:14;24.70;99.90
2623;DHT22;1321;48.690;9.022;2022-08-19T10:56:57;24.70;99.90
2623;DHT22;1321;48.690;9.022;2022-08-19T10:59:27;24.70;99.90
2623;DHT22;1321;48.690;9.022;2022-08-19T11:02:05;24.80;99.90
2623;DHT22;1321;48.690;9.022;2022-08-19T11:04:35;24.80;99.90
2623;DHT22;1321;48.690;9.022;2022-08-19T11:07:05;24.80;99.90
2623;DHT22;1321;48.690;9.022;2022-08-19T11:09:39;24.80;99.90
2623;DHT22;1321;48.690;9.022;2022-08-19T11:12:10;24.90;99.90
2623;DHT22;1321;48.690;9.022;2022-08-19T11:14:40;24.80;99.90
2623;DHT22;1321;48.690;9.022;2022-08-19T11:17:09;24.90;99.90
2623;DHT22;1321;48.690;9.022;2022-08-19T11:19:39;24.90;99.90
2623;DHT22;1321;48.690;9.022;2022-08-19T11:22:09;24.90;99.90
2623;DHT22;1321;48.690;9.022;2022-08-19T11:24:45;24.90;99.90
2623;DHT22;1321;48.690;9.022;2022-08-19T11:27:14;24.90;99.90
2623;DHT22;1321;48.690;9.022;2022-08-19T11:29:43;24.90;99.90
2623;DHT22;1321;48.690;9.022;2022-08-19T11:32:11;25.00;99.90
2623;DHT22;1321;48.690;9.022;2022-08-19T11:34:41;25.00;99.90
2623;DHT22;1321;48.690;9.022;2022-08-19T11:37:10;25.00;99.90
2623;DHT22;1321;48.690;9.022;2022-08-19T11:39:39;25.00;99.90
2623;DHT22;1321;48.690;9.022;2022-08-19T11:42:08;25.00;99.90
2623;DHT22;1321;48.690;9.022;2022-08-19T11:44:50;25.00;99.90
2623;DHT22;1321;48.690;9.022;2022-08-19T11:47:19;25.10;99.90
2623;DHT22;1321;48.690;9.022;2022-08-19T11:49:49;25.00;99.90
2623;DHT22;1321;48.690;9.022;2022-08-19T11:52:18;25.00;99.90
2623;DHT22;1321;48.690;9.022;2022-08-19T11:54:47;25.00;99.90
2623;DHT22;1321;48.690;9.022;2022-08-19T11:57:17;25.00;99.90
2623;DHT22;1321;48.690;9.022;2022-08-19T11:59:51;25.00;99.90
2623;DHT22;1321;48.690;9.022;2022-08-19T12:02:21;25.00;99.90
2623;DHT22;1321;48.690;9.022;2022-08-19T12:04:52;25.00;99.90
2623;DHT22;1321;48.690;9.022;2022-08-19T12:07:21;25.00;99.90
2623;DHT22;1321;48.690;9.022;2022-08-19T12:09:50;25.10;99.90
2623;DHT22;1321;48.690;9.022;2022-08-19T12:12:21;25.10;99.90
2623;DHT22;1321;48.690;9.022;2022-08-19T12:14:52;25.10;99.90
2623;DHT22;1321;48.690;9.022;2022-08-19T12:17:26;25.20;99.90
2623;DHT22;1321;48.690;9.022;2022-08-19T12:19:57;25.20;99.90
2623;DHT22;1321;48.690;9.022;2022-08-19T12:22:26;25.10;99.90
2623;DHT22;1321;48.690;9.022;2022-08-19T12:24:55;25.10;99.90
2623;DHT22;1321;48.690;9.022;2022-08-19T12:27:24;25.20;99.90
2623;DHT22;1321;48.690;9.022;2022-08-19T12:30:10;25.20;99.90
2623;DHT22;1321;48.690;9.022;2022-08-19T12:32:39;25.30;99.90
2623;DHT22;1321;48.690;9.022;2022-08-19T12:35:09;25.30;99.90
2623;DHT22;1321;48.690;9.022;2022-08-19T12:37:39;25.30;99.90
2623;DHT22;1321;48.690;9.022;2022-08-19T12:40:22;25.30;99.90
2623;DHT22;1321;48.690;9.022;2022-08-19T12:42:52;25.40;99.90
2623;DHT22;1321;48.690;9.022;2022-08-19T12:45:22;25.40;99.90
2623;DHT22;1321;48.690;9.022;2022-08-19T12:47:52;25.40;99.90
2623;DHT22;1321;48.690;9.022;2022-08-19T12:50:23;25.40;99.90
2623;DHT22;1321;48.690;9.022;2022-08-19T12:52:51;25.50;99.90
2623;DHT22;1321;48.690;9.022;2022-08-19T12:55:20;25.50;99.90
2623;DHT22;1321;48.690;9.022;2022-08-19T12:57:49;25.50;99.90
2623;DHT22;1321;48.690;9.022;2022-08-19T13:00:19;25.50;99.90
2623;DHT22;1321;48.690;9.022;2022-08-19T13:02:50;25.50;99.90
2623;DHT22;1321;48.690;9.022;2022-08-19T13:05:23;25.50;99.90
2623;DHT22;1321;48.690;9.022;2022-08-19T13:07:53;25.50;99.90
2623;DHT22;1321;48.690;9.022;2022-08-19T13:10:24;25.50;99.90
2623;DHT22;1321;48.690;9.022;2022-08-19T13:12:53;25.50;99.90
2623;DHT22;1321;48.690;9.022;2022-08-19T13:15:22;25.50;99.90
2623;DHT22;1321;48.690;9.022;2022-08-19T13:17:52;25.50;99.90
2623;DHT22;1321;48.690;9.022;2022-08-19T13:20:25;25.50;99.90
2623;DHT22;1321;48.690;9.022;2022-08-19T13:22:53;25.50;99.90
2623;DHT22;1321;48.690;9.022;2022-08-19T13:25:24;25.60;99.90
2623;DHT22;1321;48.690;9.022;2022-08-19T13:27:52;25.60;99.90
2623;DHT22;1321;48.690;9.022;2022-08-19T13:30:22;25.60;99.90
2623;DHT22;1321;48.690;9.022;2022-08-19T13:33:09;25.60;99.90
2623;DHT22;1321;48.690;9.022;2022-08-19T13:35:46;25.60;99.90
2623;DHT22;1321;48.690;9.022;2022-08-19T13:38:16;25.70;99.90
2623;DHT22;1321;48.690;9.022;2022-08-19T13:40:45;25.70;99.90
2623;DHT22;1321;48.690;9.022;2022-08-19T13:43:14;25.70;99.90
2623;DHT22;1321;48.690;9.022;2022-08-19T13:45:50;25.70;99.90
2623;DHT22;1321;48.690;9.022;2022-08-19T13:48:19;25.70;99.90
2623;DHT22;1321;48.690;9.022;2022-08-19T13:50:49;25.70;99.90
2623;DHT22;1321;48.690;9.022;2022-08-19T13:53:18;25.70;99.90
2623;DHT22;1321;48.690;9.022;2022-08-19T13:55:46;25.70;99.90
2623;DHT22;1321;48.690;9.022;2022-08-19T13:58:14;25.70;99.90
2623;DHT22;1321;48.690;9.022;2022-08-19T14:00:44;25.70;99.90
2623;DHT22;1321;48.690;9.022;2022-08-19T14:03:14;25.70;99.90
2623;DHT22;1321;48.690;9.022;2022-08-19T14:05:42;25.70;99.90
2623;DHT22;1321;48.690;9.022;2022-08-19T14:08:12;25.70;99.90
2623;DHT22;1321;48.690;9.022;2022-08-19T14:10:41;25.80;99.90
2623;DHT22;1321;48.690;9.022;2022-08-19T14:13:14;25.80;99.90
2623;DHT22;1321;48.690;9.022;2022-08-19T14:15:42;25.80;99.90
2623;DHT22;1321;48.690;9.022;2022-08-19T14:18:11;25.80;99.90
2623;DHT22;1321;48.690;9.022;2022-08-19T14:20:40;25.80;99.90
2623;DHT22;1321;48.690;9.022;2022-08-19T14:23:08;25.90;99.90
2623;DHT22;1321;48.690;9.022;2022-08-19T14:25:38;25.90;99.90
2623;DHT22;1321;48.690;9.022;2022-08-19T14:28:07;25.90;99.90
2623;DHT22;1321;48.690;9.022;2022-08-19T14:30:36;25.90;99.90
2623;DHT22;1321;48.690;9.022;2022-08-19T14:33:05;26.00;99.90
2623;DHT22;1321;48.690;9.022;2022-08-19T14:35:35;26.00;99.90
2623;DHT22;1321;48.690;9.022;2022-08-19T14:38:05;26.00;99.90
2623;DHT22;1321;48.690;9.022;2022-08-19T14:40:35;26.00;99.90
2623;DHT22;1321;48.690;9.022;2022-08-19T14:43:04;26.00;99.90
2623;DHT22;1321;48.690;9.022;2022-08-19T14:45:34;25.90;99.90
2623;DHT22;1321;48.690;9.022;2022-08-19T14:48:03;25.90;99.90
2623;DHT22;1321;48.690;9.022;2022-08-19T14:50:32;25.90;99.90
2623;DHT22;1321;48.690;9.022;2022-08-19T14:53:02;25.90;99.90
2623;DHT22;1321;48.690;9.022;2022-08-19T14:55:41;25.90;99.90
2623;DHT22;1321;48.690;9.022;2022-08-19T14:58:12;26.00;99.90
2623;DHT22;1321;48.690;9.022;2022-08-19T15:00:57;26.00;99.90
2623;DHT22;1321;48.690;9.022;2022-08-19T15:03:26;26.00;99.90
2623;DHT22;1321;48.690;9.022;2022-08-19T15:05:54;26.00;99.90
2623;DHT22;1321;48.690;9.022;2022-08-19T15:08:25;26.00;99.90
2623;DHT22;1321;48.690;9.022;2022-08-19T15:10:54;26.10;99.90
2623;DHT22;1321;48.690;9.022;2022-08-19T15:13:25;26.10;99.90
2623;DHT22;1321;48.690;9.022;2022-08-19T15:15:54;26.10;99.90
2623;DHT22;1321;48.690;9.022;2022-08-19T15:18:23;26.10;99.90
2623;DHT22;1321;48.690;9.022;2022-08-19T15:20:51;26.10;99.90
2623;DHT22;1321;48.690;9.022;2022-08-19T15:23:20;26.10;99.90
2623;DHT22;1321;48.690;9.022;2022-08-19T15:25:49;26.10;99.90
2623;DHT22;1321;48.690;9.022;2022-08-19T15:28:20;26.20;99.90
2623;DHT22;1321;48.690;9.022;2022-08-19T15:30:49;26.20;99.90
2623;DHT22;1321;48.690;9.022;2022-08-19T15:33:18;26.20;99.90
2623;DHT22;1321;48.690;9.022;2022-08-19T15:35:47;26.20;99.90
2623;DHT22;1321;48.690;9.022;2022-08-19T15:38:17;26.20;99.90
2623;DHT22;1321;48.690;9.022;2022-08-19T15:40:48;26.30;99.90
2623;DHT22;1321;48.690;9.022;2022-08-19T15:43:17;26.30;99.90
2623;DHT22;1321;48.690;9.022;2022-08-19T15:45:48;26.40;99.90
2623;DHT22;1321;48.690;9.022;2022-08-19T15:48:17;26.40;99.90
2623;DHT22;1321;48.690;9.022;2022-08-19T15:50:45;26.40;99.90
2623;DHT22;1321;48.690;9.022;2022-08-19T15:53:13;26.50;99.90
2623;DHT22;1321;48.690;9.022;2022-08-19T15:55:43;26.50;99.90
2623;DHT22;1321;48.690;9.022;2022-08-19T15:58:13;26.60;99.90
2623;DHT22;1321;48.690;9.022;2022-08-19T16:01:03;26.60;99.90
2623;DHT22;1321;48.690;9.022;2022-08-19T16:03:47;26.60;99.90
2623;DHT22;1321;48.690;9.022;2022-08-19T16:06:43;26.60;99.90
2623;DHT22;1321;48.690;9.022;2022-08-19T16:09:11;26.60;99.90
2623;DHT22;1321;48.690;9.022;2022-08-19T16:11:41;26.60;99.90
2623;DHT22;1321;48.690;9.022;2022-08-19T16:14:12;26.60;99.90
2623;DHT22;1321;48.690;9.022;2022-08-19T16:16:42;26.60;99.90
2623;DHT22;1321;48.690;9.022;2022-08-19T16:19:15;26.60;99.90
2623;DHT22;1321;48.690;9.022;2022-08-19T16:21:49;26.60;99.90
2623;DHT22;1321;48.690;9.022;2022-08-19T16:24:20;26.70;99.90
2623;DHT22;1321;48.690;9.022;2022-08-19T16:26:48;26.60;99.90
2623;DHT22;1321;48.690;9.022;2022-08-19T16:29:19;26.60;99.90
2623;DHT22;1321;48.690;9.022;2022-08-19T16:32:03;26.60;99.90